createdAt,value
2023-03-08T00:01:47.017Z,96.87
2023-03-08T00:04:15.911Z,96.71
2023-03-08T00:06:50.523Z,96.94
2023-03-08T00:09:20.521Z,97.08
2023-03-08T00:11:48.657Z,97.06
2023-03-08T00:14:16.755Z,96.82
2023-03-08T00:16:45.195Z,97.62
2023-03-08T00:19:13.650Z,98.04
2023-03-08T00:21:41.895Z,97.58
2023-03-08T00:24:10.385Z,97.29
2023-03-08T00:26:40.055Z,96.89
2023-03-08T00:29:08.504Z,97.03
2023-03-08T00:31:36.883Z,97.04
2023-03-08T00:34:05.513Z,96.70
2023-03-08T00:36:34.180Z,96.64
2023-03-08T00:39:02.296Z,96.68
2023-03-08T00:41:30.440Z,96.47
2023-03-08T00:43:59.972Z,96.61
2023-03-08T00:46:28.643Z,97.17
2023-03-08T00:48:56.865Z,97.08
2023-03-08T00:51:42.709Z,97.04
2023-03-08T00:54:11.188Z,96.74
2023-03-08T00:56:39.358Z,98.04
2023-03-08T00:59:09.233Z,97.40
2023-03-08T01:01:37.522Z,97.18
2023-03-08T01:04:05.998Z,97.85
2023-03-08T01:06:33.704Z,98.14
2023-03-08T01:09:01.820Z,97.35
2023-03-08T01:11:29.784Z,96.91
2023-03-08T01:13:57.752Z,96.81
2023-03-08T01:16:29.024Z,96.37
2023-03-08T01:18:57.256Z,94.74
2023-03-08T01:21:25.331Z,93.21
2023-03-08T01:23:53.192Z,92.37
2023-03-08T01:26:22.664Z,91.62
2023-03-08T01:28:51.446Z,91.06
2023-03-08T01:31:21.188Z,90.56
2023-03-08T01:33:50.350Z,90.01
2023-03-08T01:36:20.134Z,89.81
2023-03-08T01:38:48.058Z,89.26
2023-03-08T01:41:18.162Z,88.75
2023-03-08T01:43:46.885Z,89.23
2023-03-08T01:46:25.525Z,88.96
2023-03-08T01:48:57.858Z,88.91
2023-03-08T01:51:31.650Z,89.08
2023-03-08T01:54:00.211Z,88.19
2023-03-08T01:56:28.116Z,87.63
2023-03-08T01:58:55.827Z,86.80
2023-03-08T02:01:23.442Z,85.36
2023-03-08T02:03:51.459Z,84.40
2023-03-08T02:06:20.712Z,83.42
2023-03-08T02:08:48.445Z,82.39
2023-03-08T02:11:16.554Z,81.88
2023-03-08T02:13:44.254Z,81.18
2023-03-08T02:16:14.515Z,80.73
2023-03-08T02:18:53.806Z,79.48
2023-03-08T02:21:22.957Z,79.54
2023-03-08T02:23:51.904Z,78.62
2023-03-08T02:26:19.727Z,78.87
2023-03-08T02:28:47.880Z,77.93
2023-03-08T02:31:16.197Z,77.35
2023-03-08T02:33:43.774Z,77.42
2023-03-08T02:36:11.631Z,77.12
2023-03-08T02:38:39.265Z,77.85
2023-03-08T02:41:08.467Z,77.94
2023-03-08T02:43:36.991Z,78.00
2023-03-08T02:46:04.556Z,77.85
2023-03-08T02:48:32.156Z,77.90
2023-03-08T02:50:59.741Z,77.30
2023-03-08T02:53:27.351Z,77.13
2023-03-08T02:55:54.950Z,77.58
2023-03-08T02:58:23.881Z,77.39
2023-03-08T03:00:51.441Z,77.35
2023-03-08T03:03:19.056Z,77.69
2023-03-08T03:05:46.662Z,77.97
2023-03-08T03:08:14.175Z,78.06
2023-03-08T03:10:41.816Z,77.80
2023-03-08T03:13:09.903Z,77.29
2023-03-08T03:15:40.547Z,76.66
2023-03-08T03:18:08.413Z,76.61
2023-03-08T03:20:36.034Z,76.67
2023-03-08T03:23:04.025Z,75.92
2023-03-08T03:25:31.594Z,76.90
2023-03-08T03:27:59.148Z,76.59
2023-03-08T03:30:26.655Z,76.70
2023-03-08T03:32:55.621Z,76.27
2023-03-08T03:35:23.157Z,76.32
2023-03-08T03:37:50.688Z,76.55
2023-03-08T03:40:18.499Z,76.67
2023-03-08T03:42:46.073Z,76.62
2023-03-08T03:45:13.637Z,76.79
2023-03-08T03:47:41.202Z,76.91
2023-03-08T03:50:11.665Z,76.81
2023-03-08T03:52:39.209Z,77.20
2023-03-08T03:55:08.388Z,77.25
2023-03-08T03:57:35.929Z,77.74
2023-03-08T04:00:04.238Z,77.86
2023-03-08T04:02:31.907Z,77.98
2023-03-08T04:04:59.535Z,78.23
2023-03-08T04:07:28.507Z,78.05
2023-03-08T04:09:56.263Z,78.08
2023-03-08T04:12:23.823Z,78.58
2023-03-08T04:14:51.422Z,77.99
2023-03-08T04:17:18.970Z,78.39
2023-03-08T04:19:46.533Z,78.70
2023-03-08T04:22:14.109Z,78.80
2023-03-08T04:24:43.085Z,79.79
2023-03-08T04:27:10.613Z,79.89
2023-03-08T04:29:38.177Z,80.17
2023-03-08T04:32:06.562Z,80.65
2023-03-08T04:34:34.148Z,80.36
2023-03-08T04:37:01.709Z,80.53
2023-03-08T04:39:29.527Z,80.33
2023-03-08T04:41:58.403Z,80.82
2023-03-08T04:44:25.969Z,81.06
2023-03-08T04:46:53.783Z,81.78
2023-03-08T04:49:21.503Z,82.04
2023-03-08T04:51:49.049Z,82.51
2023-03-08T04:54:16.684Z,82.47
2023-03-08T04:56:44.333Z,83.43
2023-03-08T04:59:13.259Z,83.33
2023-03-08T05:01:42.585Z,82.75
2023-03-08T05:04:11.411Z,82.59
2023-03-08T05:06:39.072Z,82.46
2023-03-08T05:09:06.858Z,83.96
2023-03-08T05:11:34.409Z,84.22
2023-03-08T05:14:01.966Z,84.01
2023-03-08T05:16:30.975Z,84.47
2023-03-08T05:18:58.609Z,83.59
2023-03-08T05:21:26.252Z,83.79
2023-03-08T05:23:53.813Z,83.94
2023-03-08T05:26:21.580Z,83.21
2023-03-08T05:28:49.169Z,83.34
2023-03-08T05:31:18.964Z,82.54
2023-03-08T05:33:50.905Z,82.60
2023-03-08T05:36:19.136Z,83.06
2023-03-08T05:38:46.915Z,82.73
2023-03-08T05:41:16.151Z,82.63
2023-03-08T05:43:43.943Z,82.79
2023-03-08T05:46:13.156Z,82.59
2023-03-08T05:48:40.944Z,82.55
2023-03-08T05:51:11.870Z,82.19
2023-03-08T05:53:39.784Z,82.16
2023-03-08T05:56:11.502Z,81.76
2023-03-08T05:58:41.447Z,81.18
2023-03-08T06:01:14.865Z,81.61
2023-03-08T06:03:42.472Z,80.95
2023-03-08T06:06:11.638Z,80.80
2023-03-08T06:08:39.780Z,81.29
2023-03-08T06:11:07.713Z,81.63
2023-03-08T06:13:35.496Z,81.79
2023-03-08T06:16:03.980Z,81.56
2023-03-08T06:18:31.826Z,81.46
2023-03-08T06:21:00.315Z,80.58
2023-03-08T06:23:30.618Z,79.53
2023-03-08T06:25:58.649Z,78.14
2023-03-08T06:28:27.565Z,78.31
2023-03-08T06:30:55.646Z,77.62
2023-03-08T06:33:24.936Z,78.23
2023-03-08T06:35:59.426Z,78.69
2023-03-08T06:38:30.145Z,78.50
2023-03-08T06:40:58.535Z,78.47
2023-03-08T06:43:26.604Z,78.74
2023-03-08T06:45:54.338Z,79.05
2023-03-08T06:48:22.275Z,79.10
2023-03-08T06:50:50.113Z,79.46
2023-03-08T06:53:17.732Z,79.38
2023-03-08T06:55:46.766Z,79.17
2023-03-08T06:58:14.377Z,79.29
2023-03-08T07:00:42.047Z,79.91
2023-03-08T07:03:09.653Z,80.03
2023-03-08T07:05:37.221Z,80.71
2023-03-08T07:08:05.508Z,82.13
2023-03-08T07:10:33.326Z,83.90
2023-03-08T07:13:02.229Z,84.83
2023-03-08T07:15:29.847Z,85.59
2023-03-08T07:17:59.050Z,86.32
2023-03-08T07:20:28.485Z,85.85
2023-03-08T07:22:56.173Z,87.81
2023-03-08T07:25:23.785Z,90.13
2023-03-08T07:27:51.386Z,91.69
2023-03-08T07:30:20.630Z,92.28
2023-03-08T07:32:48.398Z,93.99
2023-03-08T07:35:16.770Z,94.73
2023-03-08T07:37:45.867Z,95.81
2023-03-08T07:40:14.090Z,96.91
2023-03-08T07:42:41.644Z,97.46
2023-03-08T07:45:10.234Z,97.82
2023-03-08T07:47:39.283Z,98.66
2023-03-08T07:50:07.310Z,99.31
2023-03-08T07:52:34.895Z,99.84
2023-03-08T07:55:03.260Z,100.00
2023-03-08T07:57:30.861Z,100.00
2023-03-08T07:59:58.454Z,100.00
2023-03-08T08:02:26.038Z,100.00
2023-03-08T08:04:54.975Z,100.00
2023-03-08T08:07:22.590Z,100.00
2023-03-08T08:09:50.265Z,100.00
2023-03-08T08:12:17.947Z,100.00
2023-03-08T08:14:45.992Z,100.00
2023-03-08T08:17:13.658Z,100.00
2023-03-08T08:19:41.241Z,100.00
2023-03-08T08:22:10.280Z,100.00
2023-03-08T08:24:37.875Z,100.00
2023-03-08T08:27:06.083Z,100.00
2023-03-08T08:29:33.800Z,100.00
2023-03-08T08:32:01.486Z,100.00
2023-03-08T08:34:29.038Z,100.00
2023-03-08T08:36:57.294Z,100.00
2023-03-08T08:39:26.330Z,100.00
2023-03-08T08:41:53.908Z,100.00
2023-03-08T08:44:21.544Z,100.00
2023-03-08T08:46:49.102Z,100.00
2023-03-08T08:49:17.163Z,100.00
2023-03-08T08:51:44.709Z,100.00
2023-03-08T08:54:12.349Z,100.00
2023-03-08T08:56:42.987Z,100.00
2023-03-08T08:59:11.506Z,100.00
2023-03-08T09:01:43.464Z,100.00
2023-03-08T09:04:11.667Z,100.00
2023-03-08T09:06:39.429Z,100.00
2023-03-08T09:09:07.839Z,100.00
2023-03-08T09:11:42.391Z,100.00
2023-03-08T09:14:21.098Z,100.00
2023-03-08T09:16:48.982Z,100.00
2023-03-08T09:19:16.719Z,100.00
2023-03-08T09:21:43.863Z,100.00
2023-03-08T09:24:12.135Z,100.00
2023-03-08T09:26:38.976Z,100.00
2023-03-08T09:29:07.551Z,100.00
2023-03-08T09:31:38.839Z,100.00
2023-03-08T09:34:06.794Z,100.00
2023-03-08T09:36:34.577Z,100.00
2023-03-08T09:39:02.205Z,100.00
2023-03-08T09:41:49.869Z,100.00
2023-03-08T09:44:26.976Z,100.00
2023-03-08T09:46:58.415Z,100.00
2023-03-08T09:49:29.144Z,100.00
2023-03-08T09:52:04.225Z,100.00
2023-03-08T09:54:34.240Z,100.00
2023-03-08T09:57:02.850Z,100.00
2023-03-08T09:59:34.687Z,100.00
2023-03-08T10:02:07.397Z,100.00
2023-03-08T10:04:42.743Z,100.00
2023-03-08T10:07:22.357Z,100.00
2023-03-08T10:09:57.031Z,100.00
2023-03-08T10:12:29.516Z,100.00
2023-03-08T10:15:02.659Z,100.00
2023-03-08T10:17:40.023Z,100.00
2023-03-08T10:20:18.068Z,100.00
2023-03-08T10:22:47.165Z,100.00
2023-03-08T10:25:24.198Z,100.00
2023-03-08T10:27:54.162Z,100.00
2023-03-08T10:30:23.726Z,100.00
2023-03-08T10:32:56.762Z,100.00
2023-03-08T10:35:33.010Z,100.00
2023-03-08T10:38:00.620Z,100.00
2023-03-08T10:40:28.448Z,100.00
2023-03-08T10:43:00.963Z,100.00
2023-03-08T10:45:29.726Z,100.00
2023-03-08T10:48:00.740Z,100.00
2023-03-08T10:50:30.026Z,100.00
2023-03-08T10:53:08.177Z,100.00
2023-03-08T10:55:43.934Z,100.00
2023-03-08T10:58:28.517Z,100.00
2023-03-08T11:00:57.785Z,100.00
2023-03-08T11:03:27.442Z,100.00
2023-03-08T11:05:57.886Z,100.00
2023-03-08T11:08:28.334Z,100.00
2023-03-08T11:11:03.380Z,100.00
2023-03-08T11:13:33.283Z,100.00
2023-03-08T11:16:09.927Z,100.00
2023-03-08T11:18:49.595Z,100.00
2023-03-08T11:21:24.066Z,100.00
2023-03-08T11:23:57.999Z,100.00
2023-03-08T11:26:31.120Z,100.00
2023-03-08T11:29:15.817Z,100.00
2023-03-08T11:31:49.509Z,100.00
2023-03-08T11:34:42.390Z,100.00
2023-03-08T11:37:15.491Z,100.00
2023-03-08T11:39:46.791Z,100.00
2023-03-08T11:42:21.128Z,100.00
2023-03-08T11:45:04.078Z,100.00
2023-03-08T11:47:45.002Z,100.00
2023-03-08T11:50:17.922Z,100.00
2023-03-08T11:52:54.294Z,100.00
2023-03-08T11:55:34.650Z,100.00
2023-03-08T11:58:05.996Z,100.00
2023-03-08T12:00:37.243Z,100.00
2023-03-08T12:03:10.019Z,100.00
2023-03-08T12:05:41.785Z,100.00
2023-03-08T12:08:15.282Z,100.00
2023-03-08T12:10:45.500Z,100.00
2023-03-08T12:13:18.250Z,100.00
2023-03-08T12:15:48.385Z,100.00
2023-03-08T12:18:19.845Z,100.00
2023-03-08T12:20:47.962Z,100.00
2023-03-08T12:23:24.323Z,100.00
2023-03-08T12:25:53.935Z,100.00
2023-03-08T12:28:26.351Z,100.00
2023-03-08T12:31:03.587Z,100.00
2023-03-08T12:33:33.050Z,100.00
2023-03-08T12:36:02.875Z,100.00
2023-03-08T12:38:35.385Z,100.00
2023-03-08T12:41:03.714Z,100.00
2023-03-08T12:43:33.053Z,100.00
2023-03-08T12:46:07.798Z,100.00
2023-03-08T12:48:37.611Z,100.00
2023-03-08T12:51:09.769Z,100.00
2023-03-08T12:53:41.851Z,100.00
2023-03-08T12:56:25.179Z,100.00
2023-03-08T12:58:55.441Z,100.00
2023-03-08T13:01:32.633Z,100.00
2023-03-08T13:04:01.573Z,100.00
2023-03-08T13:06:46.082Z,100.00
2023-03-08T13:09:20.106Z,100.00
2023-03-08T13:11:51.864Z,100.00
2023-03-08T13:14:29.353Z,100.00
2023-03-08T13:16:57.407Z,100.00
2023-03-08T13:19:28.934Z,100.00
2023-03-08T13:22:01.875Z,100.00
2023-03-08T13:24:40.047Z,100.00
2023-03-08T13:27:25.592Z,100.00
2023-03-08T13:29:55.056Z,100.00
2023-03-08T13:32:24.351Z,100.00
2023-03-08T13:35:06.272Z,100.00
2023-03-08T13:37:33.896Z,100.00
2023-03-08T13:40:05.091Z,100.00
2023-03-08T13:42:32.788Z,100.00
2023-03-08T13:45:20.584Z,100.00
2023-03-08T13:47:49.328Z,100.00
2023-03-08T13:50:22.439Z,100.00
2023-03-08T13:52:50.119Z,100.00
2023-03-08T13:55:22.783Z,100.00
2023-03-08T13:57:52.945Z,100.00
2023-03-08T14:00:31.489Z,100.00
2023-03-08T14:02:59.438Z,100.00
2023-03-08T14:05:28.328Z,100.00
2023-03-08T14:08:00.775Z,100.00
2023-03-08T14:10:37.915Z,100.00
2023-03-08T14:13:06.881Z,100.00
2023-03-08T14:15:36.643Z,100.00
2023-03-08T14:18:05.040Z,100.00
2023-03-08T14:20:32.887Z,100.00
2023-03-08T14:23:00.896Z,100.00
2023-03-08T14:25:30.637Z,100.00
2023-03-08T14:27:59.774Z,100.00
2023-03-08T14:30:28.763Z,100.00
2023-03-08T14:33:00.183Z,100.00
2023-03-08T14:35:30.087Z,100.00
2023-03-08T14:37:58.906Z,100.00
2023-03-08T14:40:31.151Z,100.00
2023-03-08T14:43:02.632Z,100.00
2023-03-08T14:45:34.510Z,100.00
2023-03-08T14:48:03.834Z,100.00
2023-03-08T14:50:36.795Z,100.00
2023-03-08T14:53:04.788Z,100.00
2023-03-08T14:55:34.352Z,100.00
2023-03-08T14:58:04.867Z,100.00
2023-03-08T15:00:32.776Z,100.00
2023-03-08T15:03:01.806Z,100.00
2023-03-08T15:05:30.333Z,100.00
2023-03-08T15:08:00.041Z,100.00
2023-03-08T15:10:30.390Z,100.00
2023-03-08T15:12:58.268Z,100.00
2023-03-08T15:15:27.561Z,100.00
2023-03-08T15:17:55.138Z,100.00
2023-03-08T15:20:23.300Z,100.00
2023-03-08T15:22:53.999Z,100.00
2023-03-08T15:25:25.405Z,100.00
2023-03-08T15:27:53.215Z,100.00
2023-03-08T15:30:25.754Z,100.00
2023-03-08T15:32:54.962Z,100.00
2023-03-08T15:35:23.305Z,100.00
2023-03-08T15:37:51.037Z,100.00
2023-03-08T15:40:20.447Z,100.00
2023-03-08T15:42:48.066Z,100.00
2023-03-08T15:45:15.902Z,100.00
2023-03-08T15:47:44.037Z,100.00
2023-03-08T15:50:17.394Z,100.00
2023-03-08T15:52:45.213Z,100.00
2023-03-08T15:55:14.243Z,100.00
2023-03-08T15:57:42.431Z,100.00
2023-03-08T16:00:12.612Z,100.00
2023-03-08T16:02:40.857Z,100.00
2023-03-08T16:05:10.166Z,100.00
2023-03-08T16:07:39.339Z,100.00
2023-03-08T16:10:08.760Z,100.00
2023-03-08T16:12:36.320Z,100.00
2023-03-08T16:15:04.425Z,100.00
2023-03-08T16:17:32.412Z,100.00
2023-03-08T16:20:00.117Z,100.00
2023-03-08T16:22:29.013Z,100.00
2023-03-08T16:24:58.099Z,100.00
2023-03-08T16:27:25.749Z,100.00
2023-03-08T16:29:54.003Z,100.00
2023-03-08T16:32:21.650Z,100.00
2023-03-08T16:34:51.056Z,100.00
2023-03-08T16:37:19.613Z,100.00
2023-03-08T16:39:49.710Z,100.00
2023-03-08T16:42:19.188Z,100.00
2023-03-08T16:44:49.655Z,100.00
2023-03-08T16:47:17.468Z,100.00
2023-03-08T16:49:45.234Z,100.00
2023-03-08T16:52:12.956Z,100.00
2023-03-08T16:54:40.621Z,100.00
2023-03-08T16:57:18.523Z,100.00
2023-03-08T16:59:48.695Z,100.00
2023-03-08T17:02:18.357Z,100.00
2023-03-08T17:04:46.669Z,100.00
2023-03-08T17:07:14.809Z,100.00
2023-03-08T17:09:42.502Z,100.00
2023-03-08T17:12:10.484Z,100.00
2023-03-08T17:14:38.516Z,100.00
2023-03-08T17:17:07.513Z,100.00
2023-03-08T17:19:35.220Z,100.00
2023-03-08T17:22:02.759Z,100.00
2023-03-08T17:24:32.281Z,100.00
2023-03-08T17:27:00.296Z,100.00
2023-03-08T17:29:28.245Z,100.00
2023-03-08T17:31:55.813Z,100.00
2023-03-08T17:34:24.784Z,100.00
2023-03-08T17:36:53.398Z,100.00
2023-03-08T17:39:21.408Z,100.00
2023-03-08T17:41:49.100Z,100.00
2023-03-08T17:44:16.839Z,100.00
2023-03-08T17:46:44.445Z,100.00
2023-03-08T17:49:13.088Z,100.00
2023-03-08T17:51:42.514Z,100.00
2023-03-08T17:54:11.819Z,100.00
2023-03-08T17:56:40.912Z,100.00
2023-03-08T17:59:08.577Z,100.00
2023-03-08T18:01:36.195Z,100.00
2023-03-08T18:04:05.568Z,100.00
2023-03-08T18:06:35.482Z,100.00
2023-03-08T18:09:06.702Z,100.00
2023-03-08T18:11:37.445Z,100.00
2023-03-08T18:14:05.624Z,100.00
2023-03-08T18:16:34.101Z,100.00
2023-03-08T18:19:02.409Z,100.00
2023-03-08T18:21:31.361Z,100.00
2023-03-08T18:23:59.122Z,100.00
2023-03-08T18:26:28.887Z,100.00
2023-03-08T18:28:56.657Z,100.00
2023-03-08T18:31:26.314Z,100.00
2023-03-08T18:33:55.513Z,100.00
2023-03-08T18:36:24.548Z,100.00
2023-03-08T18:38:52.166Z,100.00
2023-03-08T18:41:22.275Z,100.00
2023-03-08T18:43:51.984Z,100.00
2023-03-08T18:46:20.017Z,100.00
2023-03-08T18:48:50.816Z,100.00
2023-03-08T18:51:18.993Z,100.00
2023-03-08T18:53:46.701Z,100.00
2023-03-08T18:56:14.299Z,100.00
2023-03-08T18:58:41.963Z,100.00
2023-03-08T19:01:13.432Z,100.00
2023-03-08T19:03:41.967Z,100.00
2023-03-08T19:06:09.971Z,100.00
2023-03-08T19:08:37.564Z,100.00
2023-03-08T19:11:13.245Z,100.00
2023-03-08T19:13:41.129Z,100.00
2023-03-08T19:16:19.062Z,100.00
2023-03-08T19:18:47.365Z,100.00
2023-03-08T19:21:19.203Z,100.00
2023-03-08T19:23:46.911Z,100.00
2023-03-08T19:26:32.093Z,100.00
2023-03-08T19:29:00.720Z,100.00
2023-03-08T19:31:29.952Z,100.00
2023-03-08T19:33:57.680Z,100.00
2023-03-08T19:36:25.644Z,100.00
2023-03-08T19:38:53.201Z,100.00
2023-03-08T19:41:20.805Z,100.00
2023-03-08T19:43:48.700Z,100.00
2023-03-08T19:46:17.993Z,100.00
2023-03-08T19:48:47.432Z,100.00
2023-03-08T19:51:15.691Z,100.00
2023-03-08T19:53:43.937Z,100.00
2023-03-08T19:56:15.200Z,100.00
2023-03-08T19:58:43.043Z,100.00
2023-03-08T20:01:12.471Z,100.00
2023-03-08T20:03:40.366Z,100.00
2023-03-08T20:06:09.708Z,100.00
2023-03-08T20:08:38.288Z,100.00
2023-03-08T20:11:06.190Z,100.00
2023-03-08T20:13:33.844Z,100.00
2023-03-08T20:16:01.391Z,100.00
2023-03-08T20:18:29.264Z,100.00
2023-03-08T20:20:58.980Z,100.00
2023-03-08T20:23:27.946Z,100.00
2023-03-08T20:25:55.556Z,100.00
2023-03-08T20:28:23.124Z,100.00
2023-03-08T20:30:50.770Z,100.00
2023-03-08T20:33:18.634Z,100.00
2023-03-08T20:35:47.086Z,100.00
2023-03-08T20:38:14.723Z,100.00
2023-03-08T20:40:43.711Z,100.00
2023-03-08T20:43:11.909Z,100.00
2023-03-08T20:45:40.428Z,100.00
2023-03-08T20:48:08.119Z,100.00
2023-03-08T20:50:35.722Z,100.00
2023-03-08T20:53:03.478Z,100.00
2023-03-08T20:55:31.058Z,100.00
2023-03-08T20:58:00.097Z,100.00
2023-03-08T21:00:27.670Z,100.00
2023-03-08T21:02:56.288Z,100.00
2023-03-08T21:05:24.110Z,100.00
2023-03-08T21:07:51.724Z,100.00
2023-03-08T21:10:19.484Z,100.00
2023-03-08T21:12:47.070Z,100.00
2023-03-08T21:15:16.040Z,100.00
2023-03-08T21:17:43.682Z,100.00
2023-03-08T21:20:12.542Z,100.00
2023-03-08T21:22:40.101Z,100.00
2023-03-08T21:25:08.269Z,100.00
2023-03-08T21:27:36.464Z,100.00
2023-03-08T21:30:04.257Z,100.00
2023-03-08T21:32:33.390Z,100.00
2023-03-08T21:35:01.007Z,100.00
2023-03-08T21:37:28.757Z,100.00
2023-03-08T21:39:56.820Z,100.00
2023-03-08T21:42:25.004Z,100.00
2023-03-08T21:44:52.683Z,100.00
2023-03-08T21:47:20.248Z,100.00
2023-03-08T21:49:49.513Z,100.00
2023-03-08T21:52:17.328Z,100.00
2023-03-08T21:54:44.920Z,100.00
2023-03-08T21:57:12.734Z,100.00
2023-03-08T21:59:40.400Z,100.00
2023-03-08T22:02:10.462Z,100.00
2023-03-08T22:04:39.138Z,100.00
2023-03-08T22:07:08.099Z,100.00
2023-03-08T22:09:35.760Z,100.00
2023-03-08T22:12:03.844Z,100.00
2023-03-08T22:14:33.310Z,100.00
2023-03-08T22:17:01.261Z,100.00
2023-03-08T22:19:28.952Z,100.00
2023-03-08T22:21:58.453Z,100.00
2023-03-08T22:24:27.947Z,100.00
2023-03-08T22:26:55.490Z,100.00
2023-03-08T22:29:23.137Z,100.00
2023-03-08T22:31:50.779Z,100.00
2023-03-08T22:34:18.442Z,100.00
2023-03-08T22:36:46.097Z,100.00
2023-03-08T22:39:13.862Z,100.00
2023-03-08T22:41:42.910Z,100.00
2023-03-08T22:44:12.723Z,100.00
2023-03-08T22:46:40.359Z,100.00
2023-03-08T22:49:11.547Z,100.00
2023-03-08T22:51:42.919Z,100.00
2023-03-08T22:54:15.734Z,100.00
2023-03-08T22:56:45.050Z,100.00
2023-03-08T22:59:13.350Z,100.00
2023-03-08T23:01:41.015Z,100.00
2023-03-08T23:04:09.387Z,100.00
2023-03-08T23:06:37.072Z,100.00
2023-03-08T23:09:06.959Z,100.00
2023-03-08T23:11:34.972Z,100.00
2023-03-08T23:14:04.515Z,100.00
2023-03-08T23:16:32.694Z,100.00
2023-03-08T23:19:00.592Z,100.00
2023-03-08T23:21:31.782Z,100.00
2023-03-08T23:23:59.420Z,100.00
2023-03-08T23:26:28.508Z,100.00
2023-03-08T23:28:57.788Z,100.00
2023-03-08T23:31:29.022Z,100.00
2023-03-08T23:33:57.511Z,100.00
2023-03-08T23:36:26.689Z,100.00
2023-03-08T23:38:55.215Z,100.00
2023-03-08T23:41:23.012Z,100.00
2023-03-08T23:43:54.800Z,100.00
2023-03-08T23:46:22.804Z,100.00
2023-03-08T23:48:55.253Z,100.00
2023-03-08T23:51:24.084Z,100.00
2023-03-08T23:53:52.829Z,100.00
2023-03-08T23:56:26.507Z,100.00
2023-03-08T23:58:56.038Z,100.00
